createdAt,value
2022-12-17T00:01:20.889Z,101314.25
2022-12-17T00:04:06.310Z,101315.09
2022-12-17T00:06:51.669Z,101320.50
2022-12-17T00:09:37.115Z,101321.47
2022-12-17T00:12:22.393Z,101324.31
2022-12-17T00:15:07.776Z,101334.38
2022-12-17T00:17:52.972Z,101334.94
2022-12-17T00:20:39.166Z,101336.84
2022-12-17T00:23:24.617Z,101340.63
2022-12-17T00:26:10.825Z,101340.56
2022-12-17T00:28:56.306Z,101350.16
2022-12-17T00:31:42.231Z,101345.78
2022-12-17T00:34:27.469Z,101356.84
2022-12-17T00:37:12.812Z,101354.69
2022-12-17T00:40:14.914Z,101352.16
2022-12-17T00:43:00.288Z,101352.06
2022-12-17T00:45:45.852Z,101351.31
2022-12-17T00:48:31.034Z,101350.63
2022-12-17T00:51:16.404Z,101352.63
2022-12-17T00:54:01.615Z,101345.56
2022-12-17T00:56:46.864Z,101353.09
2022-12-17T00:59:31.984Z,101364.06
2022-12-17T01:02:18.458Z,101361.56
2022-12-17T01:05:04.614Z,101357.09
2022-12-17T01:07:49.841Z,101355.75
2022-12-17T01:10:36.404Z,101368.91
2022-12-17T01:13:21.623Z,101364.84
2022-12-17T01:16:20.441Z,101376.22
2022-12-17T01:19:05.354Z,101373.59
2022-12-17T01:21:50.613Z,101374.38
2022-12-17T01:24:36.308Z,101376.31
2022-12-17T01:27:21.435Z,101386.69
2022-12-17T01:30:06.781Z,101389.06
2022-12-17T01:32:52.099Z,101393.22
2022-12-17T01:35:37.868Z,101402.69
2022-12-17T01:38:32.444Z,101396.34
2022-12-17T01:41:18.300Z,101407.75
2022-12-17T01:44:03.606Z,101411.69
2022-12-17T01:46:52.453Z,101417.78
2022-12-17T01:49:41.258Z,101421.59
2022-12-17T01:52:27.679Z,101421.53
2022-12-17T01:55:12.790Z,101420.53
2022-12-17T01:57:58.096Z,101427.06
2022-12-17T02:00:43.304Z,101425.84
2022-12-17T02:03:36.508Z,101431.00
2022-12-17T02:06:31.175Z,101433.28
2022-12-17T02:09:42.639Z,101443.97
2022-12-17T02:12:49.414Z,101439.38
2022-12-17T02:15:47.660Z,101446.75
2022-12-17T02:18:46.543Z,101451.00
2022-12-17T02:21:32.030Z,101450.69
2022-12-17T02:24:46.689Z,101451.63
2022-12-17T02:27:32.894Z,101460.69
2022-12-17T02:30:23.068Z,101459.38
2022-12-17T02:33:09.418Z,101469.81
2022-12-17T02:36:11.970Z,101462.78
2022-12-17T02:38:57.088Z,101457.69
2022-12-17T02:42:20.509Z,101459.38
2022-12-17T02:45:06.127Z,101468.97
2022-12-17T02:47:51.428Z,101479.28
2022-12-17T02:50:36.725Z,101478.00
2022-12-17T02:53:23.163Z,101482.53
2022-12-17T02:56:08.903Z,101478.06
2022-12-17T02:58:56.376Z,101477.91
2022-12-17T03:01:41.766Z,101471.69
2022-12-17T03:04:27.053Z,101469.91
2022-12-17T03:07:12.514Z,101474.53
2022-12-17T03:09:57.655Z,101475.22
2022-12-17T03:12:43.134Z,101473.00
2022-12-17T03:15:28.413Z,101476.00
2022-12-17T03:18:13.273Z,101479.47
2022-12-17T03:20:58.628Z,101479.97
2022-12-17T03:23:43.824Z,101475.22
2022-12-17T03:26:29.024Z,101482.06
2022-12-17T03:29:14.074Z,101478.28
2022-12-17T03:31:59.009Z,101481.94
2022-12-17T03:34:44.202Z,101474.81
2022-12-17T03:37:29.341Z,101482.59
2022-12-17T03:40:14.587Z,101482.59
2022-12-17T03:42:59.711Z,101484.66
2022-12-17T03:45:44.793Z,101480.28
2022-12-17T03:48:31.437Z,101479.81
2022-12-17T03:51:17.208Z,101472.25
2022-12-17T03:54:03.078Z,101479.66
2022-12-17T03:56:48.638Z,101482.28
2022-12-17T03:59:34.552Z,101484.25
2022-12-17T04:02:19.974Z,101490.72
2022-12-17T04:05:05.519Z,101487.09
2022-12-17T04:07:50.792Z,101490.56
2022-12-17T04:10:36.132Z,101492.69
2022-12-17T04:13:21.293Z,101499.31
2022-12-17T04:16:06.591Z,101490.16
2022-12-17T04:18:51.813Z,101485.97
2022-12-17T04:21:36.988Z,101486.56
2022-12-17T04:24:22.207Z,101497.06
2022-12-17T04:27:07.423Z,101495.66
2022-12-17T04:29:52.518Z,101499.16
2022-12-17T04:32:37.861Z,101502.72
2022-12-17T04:35:23.300Z,101512.41
2022-12-17T04:38:08.687Z,101506.38
2022-12-17T04:40:54.157Z,101508.63
2022-12-17T04:43:39.371Z,101507.47
2022-12-17T04:46:25.067Z,101514.41
2022-12-17T04:49:10.139Z,101515.41
2022-12-17T04:51:55.201Z,101508.06
2022-12-17T04:54:40.378Z,101514.97
2022-12-17T04:57:25.627Z,101512.50
2022-12-17T05:00:10.916Z,101515.91
2022-12-17T05:02:56.358Z,101515.75
2022-12-17T05:05:41.469Z,101515.13
2022-12-17T05:08:26.681Z,101522.81
2022-12-17T05:11:12.020Z,101520.38
2022-12-17T05:13:56.915Z,101525.22
2022-12-17T05:16:42.218Z,101522.72
2022-12-17T05:19:27.355Z,101521.31
2022-12-17T05:22:12.655Z,101526.66
2022-12-17T05:24:57.951Z,101522.81
2022-12-17T05:27:43.183Z,101529.56
2022-12-17T05:30:29.072Z,101528.13
2022-12-17T05:33:22.026Z,101535.00
2022-12-17T05:36:07.894Z,101535.44
2022-12-17T05:38:53.190Z,101534.38
2022-12-17T05:41:38.436Z,101535.19
2022-12-17T05:44:23.887Z,101536.88
2022-12-17T05:47:09.301Z,101530.69
2022-12-17T05:49:54.635Z,101532.03
2022-12-17T05:52:41.918Z,101539.31
2022-12-17T05:55:27.761Z,101534.63
2022-12-17T05:58:27.874Z,101549.38
2022-12-17T06:01:17.728Z,101550.19
2022-12-17T06:04:03.136Z,101557.91
2022-12-17T06:06:48.409Z,101554.31
2022-12-17T06:09:33.827Z,101561.50
2022-12-17T06:12:18.994Z,101566.72
2022-12-17T06:15:03.912Z,101563.31
2022-12-17T06:17:49.539Z,101572.38
2022-12-17T06:20:34.995Z,101581.41
2022-12-17T06:23:25.789Z,101573.31
2022-12-17T06:26:11.475Z,101592.50
2022-12-17T06:28:56.790Z,101589.81
2022-12-17T06:31:41.994Z,101600.72
2022-12-17T06:34:27.709Z,101605.16
2022-12-17T06:37:13.153Z,101605.97
2022-12-17T06:39:58.268Z,101604.00
2022-12-17T06:42:43.532Z,101597.19
2022-12-17T06:45:28.849Z,101608.47
2022-12-17T06:48:25.832Z,101603.13
2022-12-17T06:51:15.221Z,101597.44
2022-12-17T06:54:01.065Z,101607.22
2022-12-17T06:56:46.829Z,101613.63
2022-12-17T06:59:32.233Z,101607.53
2022-12-17T07:02:17.610Z,101611.53
2022-12-17T07:05:02.876Z,101613.25
2022-12-17T07:07:48.254Z,101623.63
2022-12-17T07:10:34.011Z,101636.53
2022-12-17T07:13:24.259Z,101642.81
2022-12-17T07:16:10.211Z,101651.53
2022-12-17T07:18:55.521Z,101652.69
2022-12-17T07:21:40.810Z,101660.56
2022-12-17T07:24:26.033Z,101665.94
2022-12-17T07:27:11.215Z,101669.16
2022-12-17T07:29:56.368Z,101671.16
2022-12-17T07:32:41.550Z,101676.53
2022-12-17T07:35:26.833Z,101677.69
2022-12-17T07:38:19.783Z,101688.22
2022-12-17T07:41:04.985Z,101686.88
2022-12-17T07:43:53.274Z,101683.34
2022-12-17T07:46:39.152Z,101686.13
2022-12-17T07:49:26.111Z,101684.78
2022-12-17T07:52:12.145Z,101691.69
2022-12-17T07:54:57.554Z,101686.56
2022-12-17T07:57:43.265Z,101688.41
2022-12-17T08:00:29.016Z,101694.59
2022-12-17T08:03:17.959Z,101702.22
2022-12-17T08:06:03.745Z,101709.91
2022-12-17T08:08:48.908Z,101718.25
2022-12-17T08:11:34.273Z,101711.53
2022-12-17T08:14:19.736Z,101717.94
2022-12-17T08:17:05.160Z,101716.13
2022-12-17T08:19:50.290Z,101720.00
2022-12-17T08:22:35.624Z,101715.19
2022-12-17T08:25:20.707Z,101716.13
2022-12-17T08:28:11.226Z,101721.41
2022-12-17T08:31:07.702Z,101718.06
2022-12-17T08:33:52.991Z,101722.59
2022-12-17T08:36:38.241Z,101724.38
2022-12-17T08:39:23.444Z,101735.06
2022-12-17T08:42:08.774Z,101733.47
2022-12-17T08:44:54.060Z,101730.19
2022-12-17T08:47:39.332Z,101737.38
2022-12-17T08:50:25.758Z,101731.53
2022-12-17T08:53:21.698Z,101735.06
2022-12-17T08:56:07.420Z,101732.56
2022-12-17T08:58:57.365Z,101734.16
2022-12-17T09:01:44.507Z,101735.59
2022-12-17T09:04:29.876Z,101734.53
2022-12-17T09:07:15.049Z,101735.91
2022-12-17T09:10:00.355Z,101727.97
2022-12-17T09:12:45.398Z,101732.00
2022-12-17T09:15:30.879Z,101740.50
2022-12-17T09:18:16.099Z,101736.00
2022-12-17T09:21:01.428Z,101740.84
2022-12-17T09:23:46.730Z,101737.97
2022-12-17T09:26:31.593Z,101725.75
2022-12-17T09:29:16.925Z,101731.53
2022-12-17T09:32:02.199Z,101734.72
2022-12-17T09:34:47.440Z,101736.16
2022-12-17T09:37:32.781Z,101734.91
2022-12-17T09:40:17.941Z,101738.88
2022-12-17T09:43:08.079Z,101740.00
2022-12-17T09:46:07.782Z,101740.06
2022-12-17T09:49:10.783Z,101742.56
2022-12-17T09:51:56.620Z,101740.69
2022-12-17T09:55:00.966Z,101737.19
2022-12-17T09:57:52.891Z,101737.84
2022-12-17T10:00:40.079Z,101736.78
2022-12-17T10:03:37.074Z,101746.88
2022-12-17T10:06:36.394Z,101745.53
2022-12-17T10:09:28.523Z,101746.19
2022-12-17T10:12:14.677Z,101749.34
2022-12-17T10:14:59.939Z,101740.84
2022-12-17T10:17:45.112Z,101743.31
2022-12-17T10:20:53.244Z,101724.25
2022-12-17T10:23:47.295Z,101730.28
2022-12-17T10:26:41.170Z,101727.69
2022-12-17T10:29:48.091Z,101733.91
2022-12-17T10:32:34.076Z,101734.06
2022-12-17T10:35:40.800Z,101735.06
2022-12-17T10:38:47.398Z,101735.75
2022-12-17T10:41:47.535Z,101745.22
2022-12-17T10:44:42.043Z,101736.38
2022-12-17T10:47:31.955Z,101741.94
2022-12-17T10:50:18.656Z,101739.97
2022-12-17T10:53:05.482Z,101738.03
2022-12-17T10:55:52.153Z,101737.56
2022-12-17T10:58:48.122Z,101732.28
2022-12-17T11:01:42.463Z,101728.75
2022-12-17T11:04:50.413Z,101729.38
2022-12-17T11:07:48.680Z,101727.44
2022-12-17T11:10:45.093Z,101720.91
2022-12-17T11:13:35.178Z,101720.03
2022-12-17T11:16:22.323Z,101720.03
2022-12-17T11:19:09.177Z,101721.69
2022-12-17T11:21:58.742Z,101722.34
2022-12-17T11:24:46.994Z,101714.69
2022-12-17T11:27:37.086Z,101708.69
2022-12-17T11:30:31.231Z,101710.59
2022-12-17T11:33:33.613Z,101709.66
2022-12-17T11:36:52.952Z,101707.06
2022-12-17T11:39:49.384Z,101700.84
2022-12-17T11:42:44.681Z,101705.25
2022-12-17T11:45:48.531Z,101704.38
2022-12-17T11:48:42.824Z,101706.16
2022-12-17T11:51:36.726Z,101699.22
2022-12-17T11:54:36.810Z,101693.94
2022-12-17T11:57:40.314Z,101701.06
2022-12-17T12:00:32.658Z,101683.88
2022-12-17T12:03:41.432Z,101684.84
2022-12-17T12:06:49.259Z,101679.06
2022-12-17T12:10:18.627Z,101677.19
2022-12-17T12:13:09.674Z,101677.78
2022-12-17T12:15:58.091Z,101671.41
2022-12-17T12:18:58.671Z,101685.19
2022-12-17T12:21:57.066Z,101676.13
2022-12-17T12:24:48.820Z,101673.81
2022-12-17T12:27:58.763Z,101671.88
2022-12-17T12:30:48.649Z,101673.97
2022-12-17T12:33:46.152Z,101668.88
2022-12-17T12:36:33.861Z,101669.66
2022-12-17T12:39:18.980Z,101667.88
2022-12-17T12:42:31.539Z,101660.72
2022-12-17T12:45:49.508Z,101652.28
2022-12-17T12:48:40.694Z,101650.03
2022-12-17T12:51:44.984Z,101648.13
2022-12-17T12:54:51.690Z,101651.44
2022-12-17T12:57:47.175Z,101648.13
2022-12-17T13:00:58.630Z,101644.66
2022-12-17T13:03:59.815Z,101643.50
2022-12-17T13:06:45.159Z,101620.47
2022-12-17T13:09:15.046Z,101611.94
2022-12-17T13:11:44.285Z,101615.53
2022-12-17T13:14:17.018Z,101610.50
2022-12-17T13:16:46.810Z,101611.22
2022-12-17T13:19:58.048Z,101608.84
2022-12-17T13:22:27.190Z,101609.84
2022-12-17T13:24:57.809Z,101609.13
2022-12-17T13:27:33.797Z,101609.97
2022-12-17T13:30:15.239Z,101608.19
2022-12-17T13:33:00.342Z,101609.31
2022-12-17T13:35:38.109Z,101604.81
2022-12-17T13:38:07.759Z,101608.19
2022-12-17T13:40:44.089Z,101610.91
2022-12-17T13:43:19.511Z,101605.72
2022-12-17T13:45:46.695Z,101608.94
2022-12-17T13:48:25.112Z,101614.69
2022-12-17T13:51:03.713Z,101613.66
2022-12-17T13:53:34.094Z,101612.13
2022-12-17T13:56:01.170Z,101619.53
2022-12-17T13:58:30.719Z,101623.47
2022-12-17T14:01:06.676Z,101627.56
2022-12-17T14:03:57.045Z,101624.88
2022-12-17T14:06:20.949Z,101627.88
2022-12-17T14:08:49.451Z,101623.88
2022-12-17T14:11:36.120Z,101619.91
2022-12-17T14:14:03.229Z,101629.75
2022-12-17T14:16:30.055Z,101630.13
2022-12-17T14:18:58.489Z,101631.06
2022-12-17T14:21:27.432Z,101636.28
2022-12-17T14:23:54.597Z,101638.56
2022-12-17T14:26:21.696Z,101637.97
2022-12-17T14:28:54.042Z,101647.22
2022-12-17T14:31:29.018Z,101647.41
2022-12-17T14:34:08.079Z,101643.69
2022-12-17T14:36:43.074Z,101646.63
2022-12-17T14:39:31.975Z,101645.91
2022-12-17T14:42:25.410Z,101648.75
2022-12-17T14:45:06.321Z,101646.38
2022-12-17T14:47:34.771Z,101643.03
2022-12-17T14:50:01.291Z,101645.88
2022-12-17T14:52:33.146Z,101638.19
2022-12-17T14:54:59.828Z,101636.72
2022-12-17T14:57:26.447Z,101643.84
2022-12-17T14:59:53.179Z,101640.53
2022-12-17T15:02:23.711Z,101650.25
2022-12-17T15:04:52.153Z,101650.97
2022-12-17T15:07:25.371Z,101651.72
2022-12-17T15:09:53.311Z,101648.25
2022-12-17T15:12:21.022Z,101650.50
2022-12-17T15:14:47.848Z,101639.88
2022-12-17T15:17:15.161Z,101651.53
2022-12-17T15:19:42.049Z,101645.88
2022-12-17T15:22:16.435Z,101654.25
2022-12-17T15:24:44.446Z,101655.78
2022-12-17T15:27:16.201Z,101653.09
2022-12-17T15:29:43.759Z,101659.78
2022-12-17T15:32:22.922Z,101660.13
2022-12-17T15:34:50.459Z,101670.28
2022-12-17T15:37:19.840Z,101677.38
2022-12-17T15:39:47.772Z,101682.94
2022-12-17T15:42:32.927Z,101679.16
2022-12-17T15:44:59.484Z,101681.44
2022-12-17T15:47:26.046Z,101682.28
2022-12-17T15:49:52.720Z,101681.44
2022-12-17T15:52:22.196Z,101681.75
2022-12-17T15:54:49.439Z,101684.16
2022-12-17T15:57:18.725Z,101688.09
2022-12-17T15:59:45.717Z,101689.19
2022-12-17T16:02:12.973Z,101684.78
2022-12-17T16:04:41.136Z,101702.66
2022-12-17T16:07:07.809Z,101692.19
2022-12-17T16:09:34.495Z,101700.47
2022-12-17T16:12:01.175Z,101696.41
2022-12-17T16:14:27.700Z,101708.47
2022-12-17T16:16:54.371Z,101712.41
2022-12-17T16:19:23.914Z,101711.34
2022-12-17T16:21:50.583Z,101706.53
2022-12-17T16:24:17.726Z,101706.00
2022-12-17T16:26:44.370Z,101703.22
2022-12-17T16:29:11.022Z,101706.19
2022-12-17T16:31:37.699Z,101704.50
2022-12-17T16:34:08.773Z,101712.59
2022-12-17T16:36:35.613Z,101714.50
2022-12-17T16:39:02.246Z,101719.25
2022-12-17T16:41:28.880Z,101712.19
2022-12-17T16:43:55.542Z,101710.66
2022-12-17T16:46:28.282Z,101711.94
2022-12-17T16:48:56.023Z,101708.94
2022-12-17T16:51:29.002Z,101702.28
2022-12-17T16:53:57.270Z,101703.72
2022-12-17T16:56:27.178Z,101707.38
2022-12-17T16:58:54.590Z,101707.53
2022-12-17T17:01:23.231Z,101715.38
2022-12-17T17:06:39.702Z,101717.91
2022-12-17T17:09:06.503Z,101710.19
2022-12-17T17:11:33.194Z,101700.59
2022-12-17T17:14:00.314Z,101695.81
2022-12-17T17:16:27.158Z,101694.72
2022-12-17T17:18:54.500Z,101699.56
2022-12-17T17:21:24.315Z,101693.69
2022-12-17T17:24:03.233Z,101695.94
2022-12-17T17:26:33.456Z,101699.84
2022-12-17T17:29:00.521Z,101686.78
2022-12-17T17:32:01.152Z,101690.16
2022-12-17T17:34:15.233Z,101686.03
2022-12-17T17:36:42.313Z,101680.19
2022-12-17T17:39:08.987Z,101675.63
2022-12-17T17:41:36.458Z,101671.31
2022-12-17T17:44:05.943Z,101665.44
2022-12-17T17:46:33.686Z,101670.25
2022-12-17T17:49:02.234Z,101664.72
2022-12-17T17:52:07.839Z,101661.66
2022-12-17T17:54:20.383Z,101670.34
2022-12-17T17:56:47.034Z,101661.97
2022-12-17T17:59:17.831Z,101652.09
2022-12-17T18:01:47.933Z,101660.22
2022-12-17T18:04:17.283Z,101661.69
2022-12-17T18:07:02.584Z,101657.84
2022-12-17T18:09:31.779Z,101652.78
2022-12-17T18:12:18.395Z,101651.22
2022-12-17T18:15:11.925Z,101643.69
2022-12-17T18:17:31.577Z,101649.19
2022-12-17T18:19:58.142Z,101640.22
2022-12-17T18:22:24.793Z,101640.41
2022-12-17T18:24:51.399Z,101643.56
2022-12-17T18:27:18.068Z,101641.06
2022-12-17T18:29:44.785Z,101641.31
2022-12-17T18:32:11.445Z,101635.53
2022-12-17T18:34:38.834Z,101632.97
2022-12-17T18:37:05.495Z,101636.94
2022-12-17T18:39:33.006Z,101629.34
2022-12-17T18:42:18.370Z,101631.44
2022-12-17T18:44:45.028Z,101628.38
2022-12-17T18:47:11.677Z,101637.31
2022-12-17T18:49:39.103Z,101628.13
2022-12-17T18:52:05.856Z,101627.34
2022-12-17T18:54:33.858Z,101630.13
2022-12-17T18:57:01.934Z,101633.97
2022-12-17T18:59:30.192Z,101637.34
2022-12-17T19:01:57.734Z,101642.69
2022-12-17T19:04:25.511Z,101635.72
2022-12-17T19:06:53.673Z,101639.50
2022-12-17T19:09:20.507Z,101641.59
2022-12-17T19:11:47.377Z,101644.69
2022-12-17T19:14:14.143Z,101643.41
2022-12-17T19:16:40.893Z,101645.53
2022-12-17T19:19:07.556Z,101654.50
2022-12-17T19:21:34.506Z,101650.19
2022-12-17T19:24:03.773Z,101651.53
2022-12-17T19:26:31.164Z,101652.84
2022-12-17T19:28:59.124Z,101660.75
2022-12-17T19:31:28.289Z,101658.44
2022-12-17T19:33:56.252Z,101659.56
2022-12-17T19:36:28.038Z,101649.72
2022-12-17T19:38:56.846Z,101646.50
2022-12-17T19:41:24.163Z,101647.31
2022-12-17T19:43:55.867Z,101643.03
2022-12-17T19:46:23.306Z,101647.41
2022-12-17T19:48:50.887Z,101640.41
2022-12-17T19:51:20.777Z,101646.81
2022-12-17T19:53:47.927Z,101643.63
2022-12-17T19:56:29.141Z,101653.84
2022-12-17T19:59:02.104Z,101658.50
2022-12-17T20:01:33.714Z,101668.28
2022-12-17T20:04:00.542Z,101654.25
2022-12-17T20:06:30.010Z,101662.03
2022-12-17T20:09:01.712Z,101659.56
2022-12-17T20:11:34.930Z,101662.69
2022-12-17T20:14:15.618Z,101664.00
2022-12-17T20:16:47.400Z,101660.06
2022-12-17T20:19:22.782Z,101662.03
2022-12-17T20:21:49.906Z,101670.00
2022-12-17T20:24:16.928Z,101674.34
2022-12-17T20:26:45.354Z,101669.22
2022-12-17T20:29:12.430Z,101667.44
2022-12-17T20:31:39.163Z,101656.34
2022-12-17T20:34:07.222Z,101651.69
2022-12-17T20:36:34.168Z,101644.47
2022-12-17T20:39:01.104Z,101638.19
2022-12-17T20:41:29.392Z,101642.06
2022-12-17T20:43:56.733Z,101641.19
2022-12-17T20:46:24.837Z,101639.53
2022-12-17T20:48:51.952Z,101647.81
2022-12-17T20:51:24.471Z,101661.97
2022-12-17T20:53:52.421Z,101661.41
2022-12-17T20:56:23.448Z,101653.59
2022-12-17T20:58:58.892Z,101659.59
2022-12-17T21:01:27.089Z,101661.91
2022-12-17T21:03:54.888Z,101662.72
2022-12-17T21:06:28.754Z,101666.25
2022-12-17T21:08:55.871Z,101674.25
2022-12-17T21:11:28.014Z,101678.88
2022-12-17T21:13:55.054Z,101663.66
2022-12-17T21:16:27.851Z,101664.91
2022-12-17T21:18:55.923Z,101651.28
2022-12-17T21:21:25.038Z,101642.47
2022-12-17T21:23:53.078Z,101660.38
2022-12-17T21:26:22.207Z,101656.47
2022-12-17T21:28:51.690Z,101658.03
2022-12-17T21:31:27.075Z,101658.75
2022-12-17T21:33:57.271Z,101666.25
2022-12-17T21:36:25.232Z,101662.25
2022-12-17T21:38:52.658Z,101660.75
2022-12-17T21:41:22.126Z,101656.53
2022-12-17T21:43:59.408Z,101659.88
2022-12-17T21:46:27.340Z,101660.94
2022-12-17T21:48:54.897Z,101669.25
2022-12-17T21:51:21.977Z,101669.78
2022-12-17T21:53:52.962Z,101677.31
2022-12-17T21:56:19.668Z,101682.81
2022-12-17T21:58:47.197Z,101680.25
2022-12-17T22:01:20.046Z,101679.72
2022-12-17T22:03:50.242Z,101679.72
2022-12-17T22:06:22.510Z,101685.94
2022-12-17T22:08:53.334Z,101685.06
2022-12-17T22:11:24.960Z,101679.19
2022-12-17T22:14:15.311Z,101677.31
2022-12-17T22:16:48.222Z,101663.06
2022-12-17T22:19:16.410Z,101658.38
2022-12-17T22:21:45.051Z,101662.44
2022-12-17T22:24:19.720Z,101657.03
2022-12-17T22:26:46.946Z,101654.91
2022-12-17T22:29:34.381Z,101645.78
2022-12-17T22:32:19.626Z,101656.88
2022-12-17T22:36:11.362Z,101660.09
2022-12-17T22:40:14.480Z,101659.31
2022-12-17T22:44:33.364Z,101653.38
2022-12-17T22:44:42.207Z,101656.91
2022-12-17T22:46:16.234Z,101653.31
2022-12-17T22:48:42.899Z,101649.16
2022-12-17T22:51:17.833Z,101651.97
2022-12-17T22:53:53.857Z,101659.88
2022-12-17T22:56:43.157Z,101660.50
2022-12-17T22:59:08.051Z,101664.28
2022-12-17T23:01:35.233Z,101655.44
2022-12-17T23:04:03.690Z,101656.50
2022-12-17T23:06:30.506Z,101652.91
2022-12-17T23:08:57.584Z,101658.03
2022-12-17T23:11:26.100Z,101655.97
2022-12-17T23:13:53.706Z,101660.25
2022-12-17T23:16:20.477Z,101662.53
2022-12-17T23:18:50.598Z,101654.75
2022-12-17T23:21:23.893Z,101650.19
2022-12-17T23:23:55.120Z,101650.91
2022-12-17T23:26:30.368Z,101649.97
2022-12-17T23:29:01.777Z,101653.84
2022-12-17T23:31:32.323Z,101656.63
2022-12-17T23:33:58.948Z,101652.81
2022-12-17T23:36:26.499Z,101661.84
2022-12-17T23:38:55.542Z,101660.50
2022-12-17T23:41:27.296Z,101666.47
2022-12-17T23:43:54.376Z,101660.63
2022-12-17T23:46:23.131Z,101669.88
2022-12-17T23:48:50.297Z,101666.75
2022-12-17T23:51:22.737Z,101663.34
2022-12-17T23:53:49.665Z,101672.03
2022-12-17T23:56:24.463Z,101685.72
2022-12-17T23:58:59.389Z,101683.34
